sensor_id;sensor_type;location;lat;lon;timestamp;P1;durP1;ratioP1;P2;durP2;ratioP2
76292;SDS011;67256;51.154;4.164;2024-01-10T00:01:59;11.75;;;5.40;;
76292;SDS011;67256;51.154;4.164;2024-01-10T00:04:25;12.52;;;6.20;;
76292;SDS011;67256;51.154;4.164;2024-01-10T00:06:51;12.32;;;6.00;;
76292;SDS011;67256;51.154;4.164;2024-01-10T00:09:16;12.15;;;6.32;;
76292;SDS011;67256;51.154;4.164;2024-01-10T00:11:42;10.25;;;5.47;;
76292;SDS011;67256;51.154;4.164;2024-01-10T00:14:08;9.75;;;5.32;;
76292;SDS011;67256;51.154;4.164;2024-01-10T00:16:34;10.93;;;6.22;;
76292;SDS011;67256;51.154;4.164;2024-01-10T00:19:00;9.52;;;5.05;;
76292;SDS011;67256;51.154;4.164;2024-01-10T00:21:26;12.30;;;6.53;;
76292;SDS011;67256;51.154;4.164;2024-01-10T00:23:52;10.23;;;5.28;;
76292;SDS011;67256;51.154;4.164;2024-01-10T00:26:18;11.13;;;5.63;;
76292;SDS011;67256;51.154;4.164;2024-01-10T00:28:44;13.27;;;4.90;;
76292;SDS011;67256;51.154;4.164;2024-01-10T00:31:11;9.27;;;5.38;;
76292;SDS011;67256;51.154;4.164;2024-01-10T00:33:37;11.55;;;5.57;;
76292;SDS011;67256;51.154;4.164;2024-01-10T00:36:03;8.48;;;4.90;;
76292;SDS011;67256;51.154;4.164;2024-01-10T00:38:29;11.73;;;5.53;;
76292;SDS011;67256;51.154;4.164;2024-01-10T00:40:55;9.63;;;5.97;;
76292;SDS011;67256;51.154;4.164;2024-01-10T00:43:21;10.43;;;6.28;;
76292;SDS011;67256;51.154;4.164;2024-01-10T00:45:47;10.70;;;5.30;;
76292;SDS011;67256;51.154;4.164;2024-01-10T00:48:13;9.25;;;5.10;;
76292;SDS011;67256;51.154;4.164;2024-01-10T00:50:39;11.90;;;5.22;;
76292;SDS011;67256;51.154;4.164;2024-01-10T00:53:05;11.45;;;5.95;;
76292;SDS011;67256;51.154;4.164;2024-01-10T00:55:31;10.27;;;5.25;;
76292;SDS011;67256;51.154;4.164;2024-01-10T00:57:56;10.40;;;6.18;;
76292;SDS011;67256;51.154;4.164;2024-01-10T01:00:22;7.50;;;4.60;;
76292;SDS011;67256;51.154;4.164;2024-01-10T01:02:48;11.73;;;5.50;;
76292;SDS011;67256;51.154;4.164;2024-01-10T01:05:14;10.07;;;5.50;;
76292;SDS011;67256;51.154;4.164;2024-01-10T01:07:40;14.18;;;5.82;;
76292;SDS011;67256;51.154;4.164;2024-01-10T01:10:06;11.90;;;5.45;;
76292;SDS011;67256;51.154;4.164;2024-01-10T01:12:33;10.35;;;6.30;;
76292;SDS011;67256;51.154;4.164;2024-01-10T01:15:00;12.70;;;5.70;;
76292;SDS011;67256;51.154;4.164;2024-01-10T01:17:25;9.40;;;5.45;;
76292;SDS011;67256;51.154;4.164;2024-01-10T01:19:51;9.80;;;5.43;;
76292;SDS011;67256;51.154;4.164;2024-01-10T01:22:17;11.60;;;5.63;;
76292;SDS011;67256;51.154;4.164;2024-01-10T01:24:42;11.15;;;6.05;;
76292;SDS011;67256;51.154;4.164;2024-01-10T01:27:08;9.93;;;5.75;;
76292;SDS011;67256;51.154;4.164;2024-01-10T01:29:34;10.50;;;5.65;;
76292;SDS011;67256;51.154;4.164;2024-01-10T01:32:01;9.50;;;6.00;;
76292;SDS011;67256;51.154;4.164;2024-01-10T01:34:27;11.52;;;6.15;;
76292;SDS011;67256;51.154;4.164;2024-01-10T01:36:53;13.60;;;6.50;;
76292;SDS011;67256;51.154;4.164;2024-01-10T01:39:19;14.27;;;7.30;;
76292;SDS011;67256;51.154;4.164;2024-01-10T01:41:44;13.20;;;6.22;;
76292;SDS011;67256;51.154;4.164;2024-01-10T01:44:11;8.85;;;5.38;;
76292;SDS011;67256;51.154;4.164;2024-01-10T01:46:36;10.32;;;5.60;;
76292;SDS011;67256;51.154;4.164;2024-01-10T01:49:03;12.15;;;6.43;;
76292;SDS011;67256;51.154;4.164;2024-01-10T01:51:29;9.65;;;5.75;;
76292;SDS011;67256;51.154;4.164;2024-01-10T01:53:57;10.02;;;5.45;;
76292;SDS011;67256;51.154;4.164;2024-01-10T01:56:23;10.85;;;5.53;;
76292;SDS011;67256;51.154;4.164;2024-01-10T01:58:50;9.23;;;5.32;;
76292;SDS011;67256;51.154;4.164;2024-01-10T02:01:16;9.43;;;4.90;;
76292;SDS011;67256;51.154;4.164;2024-01-10T02:03:46;10.93;;;5.38;;
76292;SDS011;67256;51.154;4.164;2024-01-10T02:06:12;11.20;;;5.45;;
76292;SDS011;67256;51.154;4.164;2024-01-10T02:08:38;11.75;;;5.47;;
76292;SDS011;67256;51.154;4.164;2024-01-10T02:11:04;9.75;;;5.25;;
76292;SDS011;67256;51.154;4.164;2024-01-10T02:13:30;11.63;;;4.88;;
76292;SDS011;67256;51.154;4.164;2024-01-10T02:15:57;12.85;;;5.10;;
76292;SDS011;67256;51.154;4.164;2024-01-10T02:18:24;11.18;;;4.85;;
76292;SDS011;67256;51.154;4.164;2024-01-10T02:20:50;10.63;;;5.55;;
76292;SDS011;67256;51.154;4.164;2024-01-10T02:23:17;11.45;;;5.72;;
76292;SDS011;67256;51.154;4.164;2024-01-10T02:25:43;13.13;;;5.95;;
76292;SDS011;67256;51.154;4.164;2024-01-10T02:28:10;9.63;;;5.78;;
76292;SDS011;67256;51.154;4.164;2024-01-10T02:30:36;10.25;;;6.00;;
76292;SDS011;67256;51.154;4.164;2024-01-10T02:33:02;9.88;;;5.50;;
76292;SDS011;67256;51.154;4.164;2024-01-10T02:35:28;8.45;;;5.57;;
76292;SDS011;67256;51.154;4.164;2024-01-10T02:37:55;9.60;;;5.65;;
76292;SDS011;67256;51.154;4.164;2024-01-10T02:40:21;11.82;;;5.28;;
76292;SDS011;67256;51.154;4.164;2024-01-10T02:42:47;9.15;;;4.95;;
76292;SDS011;67256;51.154;4.164;2024-01-10T02:45:12;10.35;;;5.70;;
76292;SDS011;67256;51.154;4.164;2024-01-10T02:47:38;11.27;;;5.25;;
76292;SDS011;67256;51.154;4.164;2024-01-10T02:50:05;17.05;;;5.55;;
76292;SDS011;67256;51.154;4.164;2024-01-10T02:52:31;12.35;;;6.75;;
76292;SDS011;67256;51.154;4.164;2024-01-10T02:54:57;9.85;;;5.38;;
76292;SDS011;67256;51.154;4.164;2024-01-10T02:57:23;11.95;;;5.22;;
76292;SDS011;67256;51.154;4.164;2024-01-10T02:59:50;8.43;;;4.82;;
76292;SDS011;67256;51.154;4.164;2024-01-10T03:02:15;9.57;;;6.05;;
76292;SDS011;67256;51.154;4.164;2024-01-10T03:04:42;9.20;;;5.07;;
76292;SDS011;67256;51.154;4.164;2024-01-10T03:07:09;13.50;;;5.35;;
76292;SDS011;67256;51.154;4.164;2024-01-10T03:09:35;11.27;;;5.63;;
76292;SDS011;67256;51.154;4.164;2024-01-10T03:12:01;10.35;;;5.53;;
76292;SDS011;67256;51.154;4.164;2024-01-10T03:14:27;10.13;;;6.13;;
76292;SDS011;67256;51.154;4.164;2024-01-10T03:16:53;12.57;;;5.55;;
76292;SDS011;67256;51.154;4.164;2024-01-10T03:19:22;9.95;;;5.03;;
76292;SDS011;67256;51.154;4.164;2024-01-10T03:21:48;9.45;;;5.43;;
76292;SDS011;67256;51.154;4.164;2024-01-10T03:24:13;11.23;;;5.93;;
76292;SDS011;67256;51.154;4.164;2024-01-10T03:26:39;15.18;;;5.25;;
76292;SDS011;67256;51.154;4.164;2024-01-10T03:29:05;10.35;;;5.82;;
76292;SDS011;67256;51.154;4.164;2024-01-10T03:31:30;9.63;;;5.20;;
76292;SDS011;67256;51.154;4.164;2024-01-10T03:33:57;10.63;;;5.15;;
76292;SDS011;67256;51.154;4.164;2024-01-10T03:36:23;9.52;;;5.22;;
76292;SDS011;67256;51.154;4.164;2024-01-10T03:38:50;10.35;;;5.28;;
76292;SDS011;67256;51.154;4.164;2024-01-10T03:41:19;8.55;;;5.10;;
76292;SDS011;67256;51.154;4.164;2024-01-10T03:46:12;11.00;;;5.50;;
76292;SDS011;67256;51.154;4.164;2024-01-10T03:48:38;11.50;;;5.43;;
76292;SDS011;67256;51.154;4.164;2024-01-10T03:51:12;9.32;;;5.10;;
76292;SDS011;67256;51.154;4.164;2024-01-10T03:53:42;10.05;;;4.93;;
76292;SDS011;67256;51.154;4.164;2024-01-10T03:56:08;13.70;;;5.10;;
76292;SDS011;67256;51.154;4.164;2024-01-10T03:58:34;7.10;;;4.25;;
76292;SDS011;67256;51.154;4.164;2024-01-10T04:01:04;8.82;;;5.03;;
76292;SDS011;67256;51.154;4.164;2024-01-10T04:03:33;8.07;;;5.05;;
76292;SDS011;67256;51.154;4.164;2024-01-10T04:06:00;7.93;;;4.57;;
76292;SDS011;67256;51.154;4.164;2024-01-10T04:08:26;11.75;;;4.50;;
76292;SDS011;67256;51.154;4.164;2024-01-10T04:10:52;8.55;;;5.10;;
76292;SDS011;67256;51.154;4.164;2024-01-10T04:13:17;9.38;;;5.32;;
76292;SDS011;67256;51.154;4.164;2024-01-10T04:15:43;7.18;;;4.32;;
76292;SDS011;67256;51.154;4.164;2024-01-10T04:18:09;9.13;;;4.85;;
76292;SDS011;67256;51.154;4.164;2024-01-10T04:20:35;10.98;;;5.20;;
76292;SDS011;67256;51.154;4.164;2024-01-10T04:23:00;10.05;;;4.68;;
76292;SDS011;67256;51.154;4.164;2024-01-10T04:25:26;7.85;;;4.97;;
76292;SDS011;67256;51.154;4.164;2024-01-10T04:27:52;10.05;;;5.35;;
76292;SDS011;67256;51.154;4.164;2024-01-10T04:30:18;9.98;;;4.82;;
76292;SDS011;67256;51.154;4.164;2024-01-10T04:32:44;9.35;;;4.45;;
76292;SDS011;67256;51.154;4.164;2024-01-10T04:35:09;11.63;;;5.22;;
76292;SDS011;67256;51.154;4.164;2024-01-10T04:37:35;8.75;;;4.78;;
76292;SDS011;67256;51.154;4.164;2024-01-10T04:40:04;8.60;;;4.72;;
76292;SDS011;67256;51.154;4.164;2024-01-10T04:42:30;11.48;;;5.25;;
76292;SDS011;67256;51.154;4.164;2024-01-10T04:44:56;11.90;;;4.57;;
76292;SDS011;67256;51.154;4.164;2024-01-10T04:47:22;11.80;;;5.43;;
76292;SDS011;67256;51.154;4.164;2024-01-10T04:49:48;9.82;;;5.15;;
76292;SDS011;67256;51.154;4.164;2024-01-10T04:52:13;11.20;;;5.30;;
76292;SDS011;67256;51.154;4.164;2024-01-10T04:54:39;11.52;;;4.90;;
76292;SDS011;67256;51.154;4.164;2024-01-10T04:57:05;8.88;;;4.72;;
76292;SDS011;67256;51.154;4.164;2024-01-10T04:59:31;8.38;;;4.35;;
76292;SDS011;67256;51.154;4.164;2024-01-10T05:01:57;15.23;;;5.05;;
76292;SDS011;67256;51.154;4.164;2024-01-10T05:04:23;8.65;;;4.95;;
76292;SDS011;67256;51.154;4.164;2024-01-10T05:06:49;8.57;;;4.43;;
76292;SDS011;67256;51.154;4.164;2024-01-10T05:09:14;8.27;;;4.22;;
76292;SDS011;67256;51.154;4.164;2024-01-10T05:11:40;9.45;;;4.50;;
76292;SDS011;67256;51.154;4.164;2024-01-10T05:14:06;10.20;;;5.68;;
76292;SDS011;67256;51.154;4.164;2024-01-10T05:16:32;8.40;;;4.72;;
76292;SDS011;67256;51.154;4.164;2024-01-10T05:19:00;13.05;;;4.95;;
76292;SDS011;67256;51.154;4.164;2024-01-10T05:21:28;10.32;;;4.57;;
76292;SDS011;67256;51.154;4.164;2024-01-10T05:23:55;9.85;;;5.00;;
76292;SDS011;67256;51.154;4.164;2024-01-10T05:26:20;9.60;;;4.75;;
76292;SDS011;67256;51.154;4.164;2024-01-10T05:28:46;7.88;;;4.38;;
76292;SDS011;67256;51.154;4.164;2024-01-10T05:31:12;12.50;;;4.53;;
76292;SDS011;67256;51.154;4.164;2024-01-10T05:33:37;8.32;;;4.43;;
76292;SDS011;67256;51.154;4.164;2024-01-10T05:36:03;9.35;;;4.85;;
76292;SDS011;67256;51.154;4.164;2024-01-10T05:38:29;11.07;;;5.07;;
76292;SDS011;67256;51.154;4.164;2024-01-10T05:40:55;9.10;;;4.50;;
76292;SDS011;67256;51.154;4.164;2024-01-10T05:43:21;8.07;;;4.65;;
76292;SDS011;67256;51.154;4.164;2024-01-10T05:45:46;11.68;;;5.07;;
76292;SDS011;67256;51.154;4.164;2024-01-10T05:48:12;16.58;;;5.15;;
76292;SDS011;67256;51.154;4.164;2024-01-10T05:50:38;8.63;;;5.13;;
76292;SDS011;67256;51.154;4.164;2024-01-10T05:53:04;10.25;;;5.25;;
76292;SDS011;67256;51.154;4.164;2024-01-10T05:55:30;12.95;;;5.60;;
76292;SDS011;67256;51.154;4.164;2024-01-10T05:57:55;15.02;;;5.38;;
76292;SDS011;67256;51.154;4.164;2024-01-10T06:00:21;10.27;;;5.18;;
76292;SDS011;67256;51.154;4.164;2024-01-10T06:02:47;12.65;;;5.40;;
76292;SDS011;67256;51.154;4.164;2024-01-10T06:05:13;13.10;;;5.35;;
76292;SDS011;67256;51.154;4.164;2024-01-10T06:07:39;7.80;;;5.05;;
76292;SDS011;67256;51.154;4.164;2024-01-10T06:10:08;11.77;;;5.63;;
76292;SDS011;67256;51.154;4.164;2024-01-10T06:12:35;10.18;;;4.85;;
76292;SDS011;67256;51.154;4.164;2024-01-10T06:15:01;12.35;;;5.97;;
76292;SDS011;67256;51.154;4.164;2024-01-10T06:17:27;13.55;;;5.20;;
76292;SDS011;67256;51.154;4.164;2024-01-10T06:19:52;19.15;;;5.70;;
76292;SDS011;67256;51.154;4.164;2024-01-10T06:22:18;9.32;;;5.30;;
76292;SDS011;67256;51.154;4.164;2024-01-10T06:24:51;13.52;;;5.88;;
76292;SDS011;67256;51.154;4.164;2024-01-10T06:27:17;9.00;;;4.57;;
76292;SDS011;67256;51.154;4.164;2024-01-10T06:29:43;15.95;;;5.30;;
76292;SDS011;67256;51.154;4.164;2024-01-10T06:32:12;10.23;;;4.97;;
76292;SDS011;67256;51.154;4.164;2024-01-10T06:37:05;18.73;;;5.80;;
76292;SDS011;67256;51.154;4.164;2024-01-10T06:39:32;18.25;;;5.60;;
76292;SDS011;67256;51.154;4.164;2024-01-10T06:41:58;16.02;;;6.72;;
76292;SDS011;67256;51.154;4.164;2024-01-10T06:44:24;15.82;;;5.90;;
76292;SDS011;67256;51.154;4.164;2024-01-10T06:46:50;14.93;;;6.30;;
76292;SDS011;67256;51.154;4.164;2024-01-10T06:49:16;21.63;;;8.30;;
76292;SDS011;67256;51.154;4.164;2024-01-10T06:51:42;14.68;;;6.35;;
76292;SDS011;67256;51.154;4.164;2024-01-10T06:54:07;12.07;;;5.68;;
76292;SDS011;67256;51.154;4.164;2024-01-10T06:56:33;11.23;;;5.65;;
76292;SDS011;67256;51.154;4.164;2024-01-10T06:59:00;15.48;;;4.70;;
76292;SDS011;67256;51.154;4.164;2024-01-10T07:01:26;13.60;;;4.88;;
76292;SDS011;67256;51.154;4.164;2024-01-10T07:03:53;11.98;;;6.28;;
76292;SDS011;67256;51.154;4.164;2024-01-10T07:06:22;13.07;;;6.25;;
76292;SDS011;67256;51.154;4.164;2024-01-10T07:08:49;19.40;;;8.15;;
76292;SDS011;67256;51.154;4.164;2024-01-10T07:11:15;13.20;;;6.65;;
76292;SDS011;67256;51.154;4.164;2024-01-10T07:13:42;15.00;;;6.25;;
76292;SDS011;67256;51.154;4.164;2024-01-10T07:16:08;19.13;;;5.53;;
76292;SDS011;67256;51.154;4.164;2024-01-10T07:18:34;15.25;;;5.45;;
76292;SDS011;67256;51.154;4.164;2024-01-10T07:21:00;15.73;;;5.32;;
76292;SDS011;67256;51.154;4.164;2024-01-10T07:23:26;12.60;;;5.32;;
76292;SDS011;67256;51.154;4.164;2024-01-10T07:25:52;14.68;;;5.75;;
76292;SDS011;67256;51.154;4.164;2024-01-10T07:28:18;16.48;;;5.70;;
76292;SDS011;67256;51.154;4.164;2024-01-10T07:30:44;12.90;;;5.68;;
76292;SDS011;67256;51.154;4.164;2024-01-10T07:33:11;9.82;;;4.82;;
76292;SDS011;67256;51.154;4.164;2024-01-10T07:35:37;14.85;;;5.80;;
76292;SDS011;67256;51.154;4.164;2024-01-10T07:38:06;13.45;;;6.40;;
76292;SDS011;67256;51.154;4.164;2024-01-10T07:40:35;15.70;;;5.70;;
76292;SDS011;67256;51.154;4.164;2024-01-10T07:43:01;10.43;;;5.63;;
76292;SDS011;67256;51.154;4.164;2024-01-10T07:45:27;9.73;;;5.63;;
76292;SDS011;67256;51.154;4.164;2024-01-10T07:47:53;13.07;;;5.60;;
76292;SDS011;67256;51.154;4.164;2024-01-10T07:50:19;10.77;;;6.40;;
76292;SDS011;67256;51.154;4.164;2024-01-10T07:52:45;24.30;;;7.50;;
76292;SDS011;67256;51.154;4.164;2024-01-10T07:55:11;27.48;;;6.82;;
76292;SDS011;67256;51.154;4.164;2024-01-10T07:57:37;17.15;;;6.35;;
76292;SDS011;67256;51.154;4.164;2024-01-10T08:00:04;20.83;;;7.30;;
76292;SDS011;67256;51.154;4.164;2024-01-10T08:02:33;14.15;;;5.95;;
76292;SDS011;67256;51.154;4.164;2024-01-10T08:05:02;15.52;;;6.70;;
76292;SDS011;67256;51.154;4.164;2024-01-10T08:07:35;19.23;;;6.80;;
76292;SDS011;67256;51.154;4.164;2024-01-10T08:10:06;16.38;;;7.05;;
76292;SDS011;67256;51.154;4.164;2024-01-10T08:12:34;16.25;;;6.30;;
76292;SDS011;67256;51.154;4.164;2024-01-10T08:15:12;15.82;;;7.07;;
76292;SDS011;67256;51.154;4.164;2024-01-10T08:17:39;11.77;;;5.60;;
76292;SDS011;67256;51.154;4.164;2024-01-10T08:20:05;17.38;;;6.82;;
76292;SDS011;67256;51.154;4.164;2024-01-10T08:22:33;13.80;;;6.53;;
76292;SDS011;67256;51.154;4.164;2024-01-10T08:24:58;15.80;;;6.18;;
76292;SDS011;67256;51.154;4.164;2024-01-10T08:27:24;13.30;;;6.70;;
76292;SDS011;67256;51.154;4.164;2024-01-10T08:29:50;10.10;;;6.10;;
76292;SDS011;67256;51.154;4.164;2024-01-10T08:32:17;21.30;;;6.60;;
76292;SDS011;67256;51.154;4.164;2024-01-10T08:34:45;14.48;;;6.57;;
76292;SDS011;67256;51.154;4.164;2024-01-10T08:37:11;11.32;;;6.72;;
76292;SDS011;67256;51.154;4.164;2024-01-10T08:39:37;12.13;;;5.72;;
76292;SDS011;67256;51.154;4.164;2024-01-10T08:42:02;13.52;;;6.05;;
76292;SDS011;67256;51.154;4.164;2024-01-10T08:44:28;13.93;;;6.63;;
76292;SDS011;67256;51.154;4.164;2024-01-10T08:46:54;12.13;;;6.13;;
76292;SDS011;67256;51.154;4.164;2024-01-10T08:49:20;12.70;;;6.78;;
76292;SDS011;67256;51.154;4.164;2024-01-10T08:51:45;13.45;;;7.32;;
76292;SDS011;67256;51.154;4.164;2024-01-10T08:54:11;14.05;;;6.97;;
76292;SDS011;67256;51.154;4.164;2024-01-10T08:56:42;11.98;;;6.15;;
76292;SDS011;67256;51.154;4.164;2024-01-10T08:59:10;15.45;;;8.60;;
76292;SDS011;67256;51.154;4.164;2024-01-10T09:01:36;14.77;;;6.80;;
76292;SDS011;67256;51.154;4.164;2024-01-10T09:04:04;15.18;;;6.57;;
76292;SDS011;67256;51.154;4.164;2024-01-10T09:06:33;14.50;;;6.80;;
76292;SDS011;67256;51.154;4.164;2024-01-10T09:09:02;12.27;;;6.80;;
76292;SDS011;67256;51.154;4.164;2024-01-10T09:11:28;13.38;;;6.75;;
76292;SDS011;67256;51.154;4.164;2024-01-10T09:13:54;14.77;;;6.28;;
76292;SDS011;67256;51.154;4.164;2024-01-10T09:16:19;15.18;;;6.93;;
76292;SDS011;67256;51.154;4.164;2024-01-10T09:18:45;16.80;;;7.75;;
76292;SDS011;67256;51.154;4.164;2024-01-10T09:21:11;12.00;;;6.70;;
76292;SDS011;67256;51.154;4.164;2024-01-10T09:23:37;11.48;;;6.50;;
76292;SDS011;67256;51.154;4.164;2024-01-10T09:26:03;13.95;;;7.68;;
76292;SDS011;67256;51.154;4.164;2024-01-10T09:28:29;15.80;;;7.30;;
76292;SDS011;67256;51.154;4.164;2024-01-10T09:30:54;13.70;;;6.30;;
76292;SDS011;67256;51.154;4.164;2024-01-10T09:33:20;13.85;;;7.13;;
76292;SDS011;67256;51.154;4.164;2024-01-10T09:35:47;14.32;;;6.82;;
76292;SDS011;67256;51.154;4.164;2024-01-10T09:38:13;16.85;;;8.85;;
76292;SDS011;67256;51.154;4.164;2024-01-10T09:40:39;15.77;;;7.70;;
76292;SDS011;67256;51.154;4.164;2024-01-10T09:43:05;13.75;;;7.45;;
76292;SDS011;67256;51.154;4.164;2024-01-10T09:45:34;16.67;;;8.02;;
76292;SDS011;67256;51.154;4.164;2024-01-10T09:48:01;14.43;;;7.50;;
76292;SDS011;67256;51.154;4.164;2024-01-10T09:50:27;15.82;;;7.90;;
76292;SDS011;67256;51.154;4.164;2024-01-10T09:52:53;18.70;;;7.65;;
76292;SDS011;67256;51.154;4.164;2024-01-10T09:55:34;18.70;;;7.90;;
76292;SDS011;67256;51.154;4.164;2024-01-10T09:58:04;13.82;;;7.45;;
76292;SDS011;67256;51.154;4.164;2024-01-10T10:00:31;16.63;;;7.68;;
76292;SDS011;67256;51.154;4.164;2024-01-10T10:02:59;15.27;;;6.90;;
76292;SDS011;67256;51.154;4.164;2024-01-10T10:05:27;16.40;;;7.45;;
76292;SDS011;67256;51.154;4.164;2024-01-10T10:07:53;15.13;;;7.93;;
76292;SDS011;67256;51.154;4.164;2024-01-10T10:10:19;16.38;;;7.90;;
76292;SDS011;67256;51.154;4.164;2024-01-10T10:12:45;14.52;;;7.20;;
76292;SDS011;67256;51.154;4.164;2024-01-10T10:15:13;16.77;;;7.95;;
76292;SDS011;67256;51.154;4.164;2024-01-10T10:17:41;12.68;;;7.40;;
76292;SDS011;67256;51.154;4.164;2024-01-10T10:20:14;16.92;;;8.80;;
76292;SDS011;67256;51.154;4.164;2024-01-10T10:25:39;14.23;;;7.32;;
76292;SDS011;67256;51.154;4.164;2024-01-10T10:28:08;17.27;;;7.70;;
76292;SDS011;67256;51.154;4.164;2024-01-10T10:30:34;16.98;;;8.30;;
76292;SDS011;67256;51.154;4.164;2024-01-10T10:33:03;12.85;;;6.82;;
76292;SDS011;67256;51.154;4.164;2024-01-10T10:35:33;16.98;;;7.72;;
76292;SDS011;67256;51.154;4.164;2024-01-10T10:37:59;15.30;;;7.70;;
76292;SDS011;67256;51.154;4.164;2024-01-10T10:40:25;14.23;;;8.23;;
76292;SDS011;67256;51.154;4.164;2024-01-10T10:42:54;14.55;;;8.43;;
76292;SDS011;67256;51.154;4.164;2024-01-10T10:45:22;18.33;;;8.05;;
76292;SDS011;67256;51.154;4.164;2024-01-10T10:47:58;18.03;;;7.70;;
76292;SDS011;67256;51.154;4.164;2024-01-10T10:50:28;15.25;;;8.75;;
76292;SDS011;67256;51.154;4.164;2024-01-10T10:53:00;18.95;;;7.15;;
76292;SDS011;67256;51.154;4.164;2024-01-10T10:55:28;18.20;;;8.25;;
76292;SDS011;67256;51.154;4.164;2024-01-10T10:57:55;15.93;;;8.57;;
76292;SDS011;67256;51.154;4.164;2024-01-10T11:00:21;21.15;;;8.43;;
76292;SDS011;67256;51.154;4.164;2024-01-10T11:02:52;15.32;;;7.97;;
76292;SDS011;67256;51.154;4.164;2024-01-10T11:05:20;18.83;;;8.07;;
76292;SDS011;67256;51.154;4.164;2024-01-10T11:07:47;20.92;;;9.10;;
76292;SDS011;67256;51.154;4.164;2024-01-10T11:10:15;16.48;;;8.88;;
76292;SDS011;67256;51.154;4.164;2024-01-10T11:24:08;17.15;;;8.65;;
76292;SDS011;67256;51.154;4.164;2024-01-10T11:26:36;17.50;;;9.18;;
76292;SDS011;67256;51.154;4.164;2024-01-10T11:29:04;19.10;;;8.68;;
76292;SDS011;67256;51.154;4.164;2024-01-10T11:31:31;18.45;;;8.30;;
76292;SDS011;67256;51.154;4.164;2024-01-10T11:33:58;14.98;;;8.30;;
76292;SDS011;67256;51.154;4.164;2024-01-10T11:36:25;15.60;;;7.90;;
76292;SDS011;67256;51.154;4.164;2024-01-10T11:41:28;15.02;;;8.00;;
76292;SDS011;67256;51.154;4.164;2024-01-10T11:49:14;14.68;;;8.10;;
76292;SDS011;67256;51.154;4.164;2024-01-10T11:51:44;16.05;;;8.48;;
76292;SDS011;67256;51.154;4.164;2024-01-10T11:54:11;17.67;;;8.10;;
76292;SDS011;67256;51.154;4.164;2024-01-10T11:56:41;16.15;;;8.50;;
76292;SDS011;67256;51.154;4.164;2024-01-10T11:59:15;15.88;;;7.93;;
76292;SDS011;67256;51.154;4.164;2024-01-10T12:01:44;14.90;;;8.48;;
76292;SDS011;67256;51.154;4.164;2024-01-10T12:04:10;16.10;;;9.32;;
76292;SDS011;67256;51.154;4.164;2024-01-10T12:06:36;14.35;;;7.13;;
76292;SDS011;67256;51.154;4.164;2024-01-10T12:09:03;15.52;;;8.80;;
76292;SDS011;67256;51.154;4.164;2024-01-10T12:11:35;17.67;;;9.07;;
76292;SDS011;67256;51.154;4.164;2024-01-10T12:14:01;17.15;;;8.52;;
76292;SDS011;67256;51.154;4.164;2024-01-10T12:16:27;16.75;;;8.60;;
76292;SDS011;67256;51.154;4.164;2024-01-10T12:18:54;17.10;;;8.80;;
76292;SDS011;67256;51.154;4.164;2024-01-10T12:21:20;21.38;;;9.70;;
76292;SDS011;67256;51.154;4.164;2024-01-10T12:23:46;15.10;;;8.10;;
76292;SDS011;67256;51.154;4.164;2024-01-10T12:26:14;16.63;;;8.75;;
76292;SDS011;67256;51.154;4.164;2024-01-10T12:28:40;17.05;;;9.95;;
76292;SDS011;67256;51.154;4.164;2024-01-10T12:31:18;13.30;;;8.55;;
76292;SDS011;67256;51.154;4.164;2024-01-10T12:33:43;17.83;;;8.02;;
76292;SDS011;67256;51.154;4.164;2024-01-10T12:36:10;16.50;;;8.30;;
76292;SDS011;67256;51.154;4.164;2024-01-10T12:38:36;15.35;;;8.35;;
76292;SDS011;67256;51.154;4.164;2024-01-10T12:41:05;19.15;;;8.23;;
76292;SDS011;67256;51.154;4.164;2024-01-10T12:43:33;16.02;;;8.13;;
76292;SDS011;67256;51.154;4.164;2024-01-10T12:48:39;15.57;;;8.20;;
76292;SDS011;67256;51.154;4.164;2024-01-10T12:51:09;16.60;;;9.27;;
76292;SDS011;67256;51.154;4.164;2024-01-10T12:56:05;17.65;;;8.68;;
76292;SDS011;67256;51.154;4.164;2024-01-10T12:58:32;15.63;;;8.85;;
76292;SDS011;67256;51.154;4.164;2024-01-10T13:01:00;17.15;;;9.60;;
76292;SDS011;67256;51.154;4.164;2024-01-10T13:03:25;15.70;;;9.07;;
76292;SDS011;67256;51.154;4.164;2024-01-10T13:05:52;14.82;;;8.35;;
76292;SDS011;67256;51.154;4.164;2024-01-10T13:08:18;21.85;;;10.05;;
76292;SDS011;67256;51.154;4.164;2024-01-10T13:10:45;16.60;;;9.18;;
76292;SDS011;67256;51.154;4.164;2024-01-10T13:13:12;14.65;;;8.63;;
76292;SDS011;67256;51.154;4.164;2024-01-10T13:15:39;15.50;;;8.60;;
76292;SDS011;67256;51.154;4.164;2024-01-10T13:18:05;21.13;;;10.40;;
76292;SDS011;67256;51.154;4.164;2024-01-10T13:20:38;16.85;;;9.95;;
76292;SDS011;67256;51.154;4.164;2024-01-10T13:23:04;16.42;;;8.32;;
76292;SDS011;67256;51.154;4.164;2024-01-10T13:25:31;13.60;;;8.27;;
76292;SDS011;67256;51.154;4.164;2024-01-10T13:27:56;20.02;;;8.82;;
76292;SDS011;67256;51.154;4.164;2024-01-10T13:30:22;15.38;;;7.93;;
76292;SDS011;67256;51.154;4.164;2024-01-10T13:32:48;18.20;;;8.85;;
76292;SDS011;67256;51.154;4.164;2024-01-10T13:35:14;16.60;;;8.90;;
76292;SDS011;67256;51.154;4.164;2024-01-10T13:37:41;16.70;;;8.65;;
76292;SDS011;67256;51.154;4.164;2024-01-10T13:40:08;19.77;;;8.68;;
76292;SDS011;67256;51.154;4.164;2024-01-10T13:42:41;17.92;;;9.65;;
76292;SDS011;67256;51.154;4.164;2024-01-10T13:45:08;17.65;;;10.35;;
76292;SDS011;67256;51.154;4.164;2024-01-10T13:47:38;14.90;;;8.07;;
76292;SDS011;67256;51.154;4.164;2024-01-10T13:50:08;19.80;;;10.10;;
76292;SDS011;67256;51.154;4.164;2024-01-10T13:55:01;19.10;;;8.65;;
76292;SDS011;67256;51.154;4.164;2024-01-10T13:57:29;16.07;;;8.93;;
76292;SDS011;67256;51.154;4.164;2024-01-10T13:59:57;17.35;;;9.48;;
76292;SDS011;67256;51.154;4.164;2024-01-10T14:02:27;21.42;;;9.70;;
76292;SDS011;67256;51.154;4.164;2024-01-10T14:04:53;18.17;;;9.38;;
76292;SDS011;67256;51.154;4.164;2024-01-10T14:07:25;22.95;;;11.00;;
76292;SDS011;67256;51.154;4.164;2024-01-10T14:09:51;20.67;;;8.82;;
76292;SDS011;67256;51.154;4.164;2024-01-10T14:12:21;17.50;;;9.30;;
76292;SDS011;67256;51.154;4.164;2024-01-10T14:14:47;16.05;;;8.88;;
76292;SDS011;67256;51.154;4.164;2024-01-10T14:17:13;16.73;;;8.15;;
76292;SDS011;67256;51.154;4.164;2024-01-10T14:19:38;23.02;;;9.57;;
76292;SDS011;67256;51.154;4.164;2024-01-10T14:22:07;19.05;;;10.15;;
76292;SDS011;67256;51.154;4.164;2024-01-10T14:24:33;42.25;;;23.35;;
76292;SDS011;67256;51.154;4.164;2024-01-10T14:26:59;17.48;;;9.55;;
76292;SDS011;67256;51.154;4.164;2024-01-10T14:29:25;19.85;;;8.80;;
76292;SDS011;67256;51.154;4.164;2024-01-10T14:31:50;19.23;;;9.60;;
76292;SDS011;67256;51.154;4.164;2024-01-10T14:34:16;17.70;;;9.10;;
76292;SDS011;67256;51.154;4.164;2024-01-10T14:36:42;19.20;;;8.13;;
76292;SDS011;67256;51.154;4.164;2024-01-10T14:39:07;17.48;;;9.88;;
76292;SDS011;67256;51.154;4.164;2024-01-10T14:41:33;24.08;;;10.25;;
76292;SDS011;67256;51.154;4.164;2024-01-10T14:43:59;20.58;;;10.45;;
76292;SDS011;67256;51.154;4.164;2024-01-10T14:46:25;22.98;;;10.88;;
76292;SDS011;67256;51.154;4.164;2024-01-10T14:48:53;20.95;;;10.15;;
76292;SDS011;67256;51.154;4.164;2024-01-10T14:51:19;17.83;;;9.75;;
76292;SDS011;67256;51.154;4.164;2024-01-10T14:53:45;19.23;;;10.65;;
76292;SDS011;67256;51.154;4.164;2024-01-10T14:56:10;29.60;;;10.25;;
76292;SDS011;67256;51.154;4.164;2024-01-10T14:58:36;20.13;;;9.70;;
76292;SDS011;67256;51.154;4.164;2024-01-10T15:01:02;18.92;;;9.27;;
76292;SDS011;67256;51.154;4.164;2024-01-10T15:03:28;18.73;;;9.88;;
76292;SDS011;67256;51.154;4.164;2024-01-10T15:05:53;22.10;;;10.30;;
76292;SDS011;67256;51.154;4.164;2024-01-10T15:08:19;22.45;;;10.38;;